Flugplatz Braunschweig Wolfsburg

Bericht für EDVE

vom 27.02. um 06:50 UTC

Wind 9 kt aus 310°

Sichtweite 10 km oder mehr

bedeckt in 900 ft

Temperatur 4.0°C

Taupunkt 2.0°C

Luftfeuchtigkeit 87%

Luftdruck 1037 hPa

EDVE 270650Z AUTO 31009KT 9999 // OVC009/// 04/02 Q1037
Keine Prognose (TAF) verfügbar.
Impressum